Time,TemperatureF,DewpointF,PressureIn,WindDirection,WindDirectionDegrees,WindSpeedMPH,WindSpeedGustMPH,Humidity,HourlyPrecipIn,Conditions,Clouds,dailyrainin,SoftwareType,DateUTC
2013-03-24 00:01:00,67.1,61.4,29.67,ENE,57,2.6,6.6,81,-99.99,,,0.00,CWS Microserver 1.4,2013-03-24 05:01:00,
2013-03-24 00:06:00,66.9,61.3,29.67,NE,55,3.2,6.5,82,-99.99,,,0.00,CWS Microserver 1.4,2013-03-24 05:06:00,
2013-03-24 00:11:00,66.7,61.3,29.67,NE,55,3.2,6.5,82,-99.99,,,0.00,CWS Microserver 1.4,2013-03-24 05:11:00,
2013-03-24 00:16:00,66.7,61.3,29.67,NE,55,3.2,6.5,82,-99.99,,,0.00,CWS Microserver 1.4,2013-03-24 05:16:00,
2013-03-24 00:21:00,66.5,61.2,29.67,ESE,112,2.4,3.3,83,-99.99,,,0.00,CWS Microserver 1.4,2013-03-24 05:21:00,
2013-03-24 00:26:00,66.7,61.6,29.67,East,91,1.9,3.3,83,-99.99,,,0.00,CWS Microserver 1.4,2013-03-24 05:26:00,
2013-03-24 00:31:00,66.5,61.4,29.67,East,87,1.5,2.9,83,-99.99,,,0.00,CWS Microserver 1.4,2013-03-24 05:31:00,
2013-03-24 00:36:00,66.3,61.2,29.67,NE,35,1.8,2.8,83,-99.99,,,0.00,CWS Microserver 1.4,2013-03-24 05:36:00,
2013-03-24 00:41:00,66.9,61.6,29.67,North,6,2.9,2.9,83,-99.99,,,0.00,CWS Microserver 1.4,2013-03-24 05:41:00,
2013-03-24 00:46:00,66.3,61.0,29.67,North,6,2.9,2.9,83,-99.99,,,0.00,CWS Microserver 1.4,2013-03-24 05:46:00,
2013-03-24 01:01:00,66.3,60.9,29.67,North,355,1.5,5.0,82,-99.99,,,0.00,CWS Microserver 1.4,2013-03-24 06:01:00,
2013-03-24 01:06:00,66.3,60.9,29.67,NE,40,1.1,5.0,82,-99.99,,,0.00,CWS Microserver 1.4,2013-03-24 06:06:00,
2013-03-24 01:16:00,66.5,61.1,29.67,NNE,21,2.7,3.6,82,-99.99,,,0.00,CWS Microserver 1.4,2013-03-24 06:16:00,
2013-03-24 01:21:00,66.5,61.0,29.67,NE,53,2.2,2.7,82,-99.99,,,0.00,CWS Microserver 1.4,2013-03-24 06:21:00,
2013-03-24 01:26:00,66.5,61.0,29.68,NNE,31,1.1,2.7,82,-99.99,,,0.00,CWS Microserver 1.4,2013-03-24 06:26:00,
2013-03-24 01:36:00,66.3,60.8,29.68,NNW,345,3.5,6.8,82,-99.99,,,0.00,CWS Microserver 1.4,2013-03-24 06:36:00,
2013-03-24 01:46:00,66.3,60.8,29.68,NNW,343,3.5,6.6,82,-99.99,,,0.00,CWS Microserver 1.4,2013-03-24 06:46:00,
2013-03-24 01:51:00,66.3,60.6,29.68,North,356,2.1,6.6,82,-99.99,,,0.00,CWS Microserver 1.4,2013-03-24 06:51:00,
2013-03-24 02:01:00,66.3,60.5,29.68,North,359,3.0,3.0,81,-99.99,,,0.00,CWS Microserver 1.4,2013-03-24 07:01:00,
2013-03-24 02:06:00,66.5,60.6,29.68,NNW,344,5.5,6.4,81,-99.99,,,0.00,CWS Microserver 1.4,2013-03-24 07:06:00,
2013-03-24 02:11:00,66.5,60.5,29.68,NNW,336,6.0,6.4,81,-99.99,,,0.00,CWS Microserver 1.4,2013-03-24 07:11:00,
2013-03-24 02:16:00,66.7,60.6,29.69,NNW,342,5.7,7.8,80,-99.99,,,0.00,CWS Microserver 1.4,2013-03-24 07:16:00,
2013-03-24 02:21:00,66.7,60.4,29.69,NNW,339,4.4,8.1,80,-99.99,,,0.00,CWS Microserver 1.4,2013-03-24 07:21:00,
2013-03-24 02:36:00,66.7,60.7,29.68,North,352,3.4,8.1,81,-99.99,,,0.00,CWS Microserver 1.4,2013-03-24 07:36:00,
2013-03-24 02:46:00,66.5,60.5,29.68,ENE,60,2.0,2.9,81,-99.99,,,0.00,CWS Microserver 1.4,2013-03-24 07:46:00,
2013-03-24 02:51:00,66.5,60.5,29.68,ENE,74,2.1,2.9,81,-99.99,,,0.00,CWS Microserver 1.4,2013-03-24 07:51:00,
2013-03-24 02:56:00,66.5,60.5,29.68,NE,40,1.7,3.2,81,-99.99,,,0.00,CWS Microserver 1.4,2013-03-24 07:56:00,
2013-03-24 03:06:00,66.9,60.8,29.67,ENE,66,1.0,3.4,80,-99.99,,,0.00,CWS Microserver 1.4,2013-03-24 08:06:00,
2013-03-24 03:11:00,66.5,60.6,29.67,SE,137,2.7,3.4,81,-99.99,,,0.00,CWS Microserver 1.4,2013-03-24 08:11:00,
2013-03-24 03:16:00,66.3,60.5,29.67,SSE,162,1.9,2.7,81,-99.99,,,0.00,CWS Microserver 1.4,2013-03-24 08:16:00,
2013-03-24 03:21:00,66.3,60.6,29.67,NW,321,15.3,16.5,81,-99.99,,,0.00,CWS Microserver 1.4,2013-03-24 08:21:00,
2013-03-24 03:26:00,66.3,60.5,29.72,NNW,331,12.5,27.4,81,-99.99,,,0.00,CWS Microserver 1.4,2013-03-24 08:26:00,
2013-03-24 03:31:00,66.3,60.5,29.72,NNW,334,20.2,28.6,81,-99.99,,,0.00,CWS Microserver 1.4,2013-03-24 08:31:00,
2013-03-24 03:36:00,65.6,58.9,29.74,NW,322,13.2,28.6,78,-99.99,,,0.00,CWS Microserver 1.4,2013-03-24 08:36:00,
2013-03-24 03:41:00,65.6,58.8,29.74,NNW,336,17.2,28.6,78,-99.99,,,0.00,CWS Microserver 1.4,2013-03-24 08:41:00,
2013-03-24 03:46:00,64.9,57.6,29.75,NNW,334,24.6,24.6,77,-99.99,,,0.00,CWS Microserver 1.4,2013-03-24 08:46:00,
2013-03-24 03:56:00,64.2,57.1,29.75,NNW,333,14.0,24.1,77,-99.99,,,0.00,CWS Microserver 1.4,2013-03-24 08:56:00,
2013-03-24 04:01:00,63.5,56.4,29.75,NNW,328,23.0,26.4,77,-99.99,,,0.00,CWS Microserver 1.4,2013-03-24 09:01:00,
2013-03-24 04:06:00,63.5,56.4,29.75,NNW,328,23.8,28.1,77,-99.99,,,0.00,CWS Microserver 1.4,2013-03-24 09:06:00,
2013-03-24 04:16:00,62.4,55.5,29.76,NW,319,20.7,30.3,78,-99.99,,,0.00,CWS Microserver 1.4,2013-03-24 09:16:00,
2013-03-24 04:21:00,62.4,55.4,29.76,NNW,329,23.6,29.4,78,-99.99,,,0.00,CWS Microserver 1.4,2013-03-24 09:21:00,
2013-03-24 04:26:00,62.0,54.9,29.77,NNW,338,32.5,32.5,77,-99.99,,,0.00,CWS Microserver 1.4,2013-03-24 09:26:00,
2013-03-24 04:41:00,61.8,54.9,29.77,NNW,338,22.9,29.2,78,-99.99,,,0.00,CWS Microserver 1.4,2013-03-24 09:41:00,
2013-03-24 04:51:00,60.9,54.2,29.80,NW,314,14.5,27.3,78,-99.99,,,0.00,CWS Microserver 1.4,2013-03-24 09:51:00,
2013-03-24 04:56:00,60.8,53.7,29.80,NNW,336,12.0,25.5,77,-99.99,,,0.00,CWS Microserver 1.4,2013-03-24 09:56:00,
2013-03-24 05:01:00,60.6,53.6,29.80,NNW,335,25.9,26.7,77,-99.99,,,0.00,CWS Microserver 1.4,2013-03-24 10:01:00,
2013-03-24 05:06:00,60.6,54.0,29.81,NW,320,15.5,28.3,78,-99.99,,,0.00,CWS Microserver 1.4,2013-03-24 10:06:00,
2013-03-24 05:16:00,60.4,53.5,29.81,North,349,21.5,32.9,77,-99.99,,,0.00,CWS Microserver 1.4,2013-03-24 10:16:00,
2013-03-24 05:21:00,60.4,53.5,29.81,NNW,331,22.1,32.9,77,-99.99,,,0.00,CWS Microserver 1.4,2013-03-24 10:21:00,
2013-03-24 05:31:00,59.7,52.3,29.82,NW,325,26.0,31.2,76,-99.99,,,0.00,CWS Microserver 1.4,2013-03-24 10:31:00,
2013-03-24 05:36:00,59.0,51.1,29.82,NNW,330,26.8,26.8,75,-99.99,,,0.00,CWS Microserver 1.4,2013-03-24 10:36:00,
2013-03-24 05:41:00,58.6,50.7,29.83,NNW,330,26.8,26.8,75,-99.99,,,0.00,CWS Microserver 1.4,2013-03-24 10:41:00,
2013-03-24 05:46:00,58.2,50.4,29.83,NW,323,16.6,26.5,75,-99.99,,,0.00,CWS Microserver 1.4,2013-03-24 10:46:00,
2013-03-24 05:51:00,58.1,50.1,29.84,NNW,335,18.7,31.0,74,-99.99,,,0.00,CWS Microserver 1.4,2013-03-24 10:51:00,
2013-03-24 05:56:00,58.1,50.1,29.84,NW,322,22.7,31.0,74,-99.99,,,0.00,CWS Microserver 1.4,2013-03-24 10:56:00,
2013-03-24 06:01:00,58.1,49.7,29.84,NNW,331,13.2,25.2,73,-99.99,,,0.00,CWS Microserver 1.4,2013-03-24 11:01:00,
2013-03-24 06:06:00,57.9,49.2,29.85,NNW,341,17.8,25.2,72,-99.99,,,0.00,CWS Microserver 1.4,2013-03-24 11:06:00,
2013-03-24 06:11:00,57.9,48.9,29.86,NNW,341,17.8,25.2,72,-99.99,,,0.00,CWS Microserver 1.4,2013-03-24 11:11:00,
2013-03-24 06:21:00,57.9,48.2,29.89,NW,320,23.2,25.7,70,-99.99,,,0.00,CWS Microserver 1.4,2013-03-24 11:21:00,
2013-03-24 06:26:00,57.7,47.8,29.88,NNW,330,25.2,31.9,69,-99.99,,,0.00,CWS Microserver 1.4,2013-03-24 11:26:00,
2013-03-24 06:31:00,57.7,47.7,29.89,NNW,327,23.6,31.9,69,-99.99,,,0.00,CWS Microserver 1.4,2013-03-24 11:31:00,
2013-03-24 06:41:00,57.3,46.3,29.90,NNW,331,12.2,30.9,66,-99.99,,,0.00,CWS Microserver 1.4,2013-03-24 11:41:00,
2013-03-24 06:46:00,57.0,46.2,29.91,NNW,331,26.7,30.9,67,-99.99,,,0.00,CWS Microserver 1.4,2013-03-24 11:46:00,
2013-03-24 06:56:00,57.0,46.4,29.92,NW,323,15.2,17.6,67,-99.99,,,0.00,CWS Microserver 1.4,2013-03-24 11:56:00,
2013-03-24 07:01:00,56.8,45.8,29.92,NW,319,20.4,26.7,66,-99.99,,,0.00,CWS Microserver 1.4,2013-03-24 12:01:00,
2013-03-24 07:06:00,56.8,45.8,29.92,NW,325,12.8,26.7,66,-99.99,,,0.00,CWS Microserver 1.4,2013-03-24 12:06:00,
2013-03-24 07:11:00,56.8,45.8,29.92,NW,308,19.3,29.3,66,-99.99,,,0.00,CWS Microserver 1.4,2013-03-24 12:11:00,
2013-03-24 07:16:00,55.9,44.8,29.91,NNW,341,13.5,29.3,66,-99.99,,,0.00,CWS Microserver 1.4,2013-03-24 12:16:00,
2013-03-24 07:21:00,55.9,44.7,29.92,NW,313,18.3,29.3,66,-99.99,,,0.00,CWS Microserver 1.4,2013-03-24 12:21:00,
2013-03-24 07:26:00,55.7,44.4,29.92,NW,313,18.3,29.3,65,-99.99,,,0.00,CWS Microserver 1.4,2013-03-24 12:26:00,
2013-03-24 07:31:00,55.7,44.3,29.92,NW,313,18.3,29.3,65,-99.99,,,0.00,CWS Microserver 1.4,2013-03-24 12:31:00,
2013-03-24 07:36:00,55.7,44.3,29.92,NNW,336,20.5,25.7,65,-99.99,,,0.00,CWS Microserver 1.4,2013-03-24 12:36:00,
2013-03-24 07:41:00,55.7,44.3,29.92,NNW,328,20.3,26.2,65,-99.99,,,0.00,CWS Microserver 1.4,2013-03-24 12:41:00,
2013-03-24 07:46:00,55.7,44.3,29.92,NNW,338,22.8,31.1,65,-99.99,,,0.00,CWS Microserver 1.4,2013-03-24 12:46:00,
2013-03-24 07:56:00,54.8,43.5,29.94,NW,325,21.3,28.8,65,-99.99,,,0.00,CWS Microserver 1.4,2013-03-24 12:56:00,
2013-03-24 08:01:00,54.8,43.5,29.94,NNW,328,10.5,25.9,65,-99.99,,,0.00,CWS Microserver 1.4,2013-03-24 13:01:00,
2013-03-24 08:06:00,55.0,43.7,29.94,NNW,328,10.5,25.9,65,-99.99,,,0.00,CWS Microserver 1.4,2013-03-24 13:06:00,
2013-03-24 08:11:00,54.8,43.1,29.94,NW,322,22.8,24.8,64,-99.99,,,0.00,CWS Microserver 1.4,2013-03-24 13:11:00,
2013-03-24 08:26:00,53.2,40.4,29.97,NNW,329,14.9,33.2,61,-99.99,,,0.00,CWS Microserver 1.4,2013-03-24 13:26:00,
2013-03-24 08:31:00,52.8,40.3,29.97,NW,318,22.2,29.7,62,-99.99,,,0.00,CWS Microserver 1.4,2013-03-24 13:31:00,
2013-03-24 08:36:00,52.5,39.6,29.97,WNW,303,15.5,26.7,61,-99.99,,,0.00,CWS Microserver 1.4,2013-03-24 13:36:00,
2013-03-24 08:46:00,52.3,39.0,29.98,NW,311,13.6,23.5,60,-99.99,,,0.00,CWS Microserver 1.4,2013-03-24 13:46:00,
2013-03-24 09:01:00,51.9,38.3,29.99,NW,310,11.1,33.2,59,-99.99,,,0.00,CWS Microserver 1.4,2013-03-24 14:01:00,
2013-03-24 09:11:00,50.9,35.0,30.00,NNW,333,22.7,38.4,54,-99.99,,,0.00,CWS Microserver 1.4,2013-03-24 14:11:00,
2013-03-24 09:16:00,50.7,35.2,30.00,NNW,333,22.7,38.4,55,-99.99,,,0.00,CWS Microserver 1.4,2013-03-24 14:16:00,
2013-03-24 09:21:00,50.7,35.9,30.01,North,355,18.1,20.9,56,-99.99,,,0.00,CWS Microserver 1.4,2013-03-24 14:21:00,
2013-03-24 09:26:00,50.9,36.9,30.01,NW,323,19.1,20.9,58,-99.99,,,0.00,CWS Microserver 1.4,2013-03-24 14:26:00,
2013-03-24 09:31:00,50.7,37.4,30.01,NW,307,16.1,26.9,60,-99.99,,,0.00,CWS Microserver 1.4,2013-03-24 14:31:00,
2013-03-24 09:46:00,50.9,36.2,30.02,NW,311,22.9,24.7,57,-99.99,,,0.00,CWS Microserver 1.4,2013-03-24 14:46:00,
2013-03-24 10:01:00,50.5,33.4,30.03,NW,324,22.1,24.3,51,-99.99,,,0.00,CWS Microserver 1.4,2013-03-24 15:01:00,
2013-03-24 10:06:00,50.3,33.5,30.03,WNW,302,28.0,31.4,52,-99.99,,,0.00,CWS Microserver 1.4,2013-03-24 15:06:00,
2013-03-24 10:11:00,50.3,33.5,30.03,NW,306,16.0,34.9,52,-99.99,,,0.00,CWS Microserver 1.4,2013-03-24 15:11:00,
2013-03-24 10:21:00,50.7,32.5,30.05,NW,324,24.4,30.9,49,-99.99,,,0.00,CWS Microserver 1.4,2013-03-24 15:21:00,
2013-03-24 10:41:00,51.4,32.1,30.05,NNW,333,14.2,24.0,47,-99.99,,,0.00,CWS Microserver 1.4,2013-03-24 15:41:00,
2013-03-24 10:46:00,51.6,33.1,30.05,NW,317,14.5,27.6,49,-99.99,,,0.00,CWS Microserver 1.4,2013-03-24 15:46:00,
2013-03-24 11:01:00,52.8,32.5,30.05,NW,311,18.7,27.5,45,-99.99,,,0.00,CWS Microserver 1.4,2013-03-24 16:01:00,
2013-03-24 11:16:00,53.4,31.8,30.05,WNW,300,23.9,25.8,43,-99.99,,,0.00,CWS Microserver 1.4,2013-03-24 16:16:00,
2013-03-24 11:21:00,53.4,31.8,30.05,NNW,330,16.4,29.7,43,-99.99,,,0.00,CWS Microserver 1.4,2013-03-24 16:21:00,
2013-03-24 11:26:00,51.8,31.0,30.05,NW,323,20.8,30.8,44,-99.99,,,0.00,CWS Microserver 1.4,2013-03-24 16:26:00,
2013-03-24 11:36:00,52.3,28.7,30.06,NNW,332,21.4,31.6,40,-99.99,,,0.00,CWS Microserver 1.4,2013-03-24 16:36:00,
2013-03-24 11:41:00,52.7,29.9,30.06,NW,324,24.5,31.6,41,-99.99,,,0.00,CWS Microserver 1.4,2013-03-24 16:41:00,
2013-03-24 11:46:00,52.1,29.1,30.06,NW,324,24.5,31.6,41,-99.99,,,0.00,CWS Microserver 1.4,2013-03-24 16:46:00,
2013-03-24 11:51:00,52.5,30.9,30.06,NW,324,24.5,31.6,43,-99.99,,,0.00,CWS Microserver 1.4,2013-03-24 16:51:00,
2013-03-24 11:56:00,52.7,28.7,30.05,NNW,328,23.0,25.8,39,-99.99,,,0.00,CWS Microserver 1.4,2013-03-24 16:56:00,
2013-03-24 12:01:00,52.7,28.7,30.05,NW,323,19.4,34.6,39,-99.99,,,0.00,CWS Microserver 1.4,2013-03-24 17:01:00,
2013-03-24 12:06:00,52.7,28.7,30.05,NW,325,27.9,34.6,39,-99.99,,,0.00,CWS Microserver 1.4,2013-03-24 17:06:00,
2013-03-24 12:11:00,53.6,29.6,30.05,NNW,328,19.0,31.8,39,-99.99,,,0.00,CWS Microserver 1.4,2013-03-24 17:11:00,
2013-03-24 12:16:00,53.7,28.5,30.06,NW,309,15.3,31.8,37,-99.99,,,0.00,CWS Microserver 1.4,2013-03-24 17:16:00,
2013-03-24 12:21:00,54.3,29.6,30.06,NNW,330,19.3,28.9,38,-99.99,,,0.00,CWS Microserver 1.4,2013-03-24 17:21:00,
2013-03-24 12:26:00,54.6,28.9,30.06,NW,319,18.2,28.9,37,-99.99,,,0.00,CWS Microserver 1.4,2013-03-24 17:26:00,
2013-03-24 12:36:00,54.6,30.8,30.06,NW,312,14.8,29.4,40,-99.99,,,0.00,CWS Microserver 1.4,2013-03-24 17:36:00,
2013-03-24 12:41:00,54.6,30.8,30.06,NW,324,28.2,32.4,40,-99.99,,,0.00,CWS Microserver 1.4,2013-03-24 17:41:00,
2013-03-24 12:46:00,54.6,28.2,30.06,NNW,338,23.2,32.4,36,-99.99,,,0.00,CWS Microserver 1.4,2013-03-24 17:46:00,
2013-03-24 12:51:00,54.1,29.4,30.06,NW,322,27.9,32.4,38,-99.99,,,0.00,CWS Microserver 1.4,2013-03-24 17:51:00,
2013-03-24 13:06:00,55.2,28.8,30.05,NW,304,17.6,28.9,36,-99.99,,,0.00,CWS Microserver 1.4,2013-03-24 18:06:00,
2013-03-24 13:11:00,55.0,30.0,30.05,NNW,329,26.1,27.9,38,-99.99,,,0.00,CWS Microserver 1.4,2013-03-24 18:11:00,
2013-03-24 13:16:00,54.6,29.9,30.05,NW,322,35.2,35.5,38,-99.99,,,0.00,CWS Microserver 1.4,2013-03-24 18:16:00,
2013-03-24 13:31:00,55.5,29.3,30.05,NNW,337,14.8,30.7,36,-99.99,,,0.00,CWS Microserver 1.4,2013-03-24 18:31:00,
2013-03-24 13:36:00,55.9,29.6,30.05,NNW,337,14.8,30.7,36,-99.99,,,0.00,CWS Microserver 1.4,2013-03-24 18:36:00,
2013-03-24 13:41:00,55.7,28.4,30.05,NNW,337,14.8,30.7,35,-99.99,,,0.00,CWS Microserver 1.4,2013-03-24 18:41:00,
2013-03-24 13:56:00,55.5,28.4,30.03,NNW,328,18.2,32.1,35,-99.99,,,0.00,CWS Microserver 1.4,2013-03-24 18:56:00,
2013-03-24 14:06:00,55.9,28.2,30.02,NNW,333,19.9,31.5,34,-99.99,,,0.00,CWS Microserver 1.4,2013-03-24 19:06:00,
2013-03-24 14:21:00,56.1,28.2,30.02,NNW,337,16.0,30.2,34,-99.99,,,0.00,CWS Microserver 1.4,2013-03-24 19:21:00,
2013-03-24 14:26:00,56.6,29.6,30.02,NNW,333,19.6,30.2,35,-99.99,,,0.00,CWS Microserver 1.4,2013-03-24 19:26:00,
2013-03-24 14:31:00,56.6,29.6,30.02,NNW,331,25.9,28.2,35,-99.99,,,0.00,CWS Microserver 1.4,2013-03-24 19:31:00,
2013-03-24 14:36:00,57.0,28.3,30.01,North,352,20.2,31.1,33,-99.99,,,0.00,CWS Microserver 1.4,2013-03-24 19:36:00,
2013-03-24 14:41:00,57.0,28.3,30.01,North,353,16.0,31.1,33,-99.99,,,0.00,CWS Microserver 1.4,2013-03-24 19:41:00,
2013-03-24 14:51:00,58.2,28.4,30.01,NNW,330,24.9,28.7,32,-99.99,,,0.00,CWS Microserver 1.4,2013-03-24 19:51:00,
2013-03-24 14:56:00,58.6,28.6,30.00,NNW,330,24.9,28.7,31,-99.99,,,0.00,CWS Microserver 1.4,2013-03-24 19:56:00,
2013-03-24 15:01:00,57.3,27.5,30.00,NNW,331,18.5,21.6,31,-99.99,,,0.00,CWS Microserver 1.4,2013-03-24 20:01:00,
2013-03-24 15:06:00,57.5,27.7,30.00,NNW,333,21.2,27.6,31,-99.99,,,0.00,CWS Microserver 1.4,2013-03-24 20:06:00,
2013-03-24 15:16:00,57.0,27.7,30.00,NNW,330,17.8,30.6,32,-99.99,,,0.00,CWS Microserver 1.4,2013-03-24 20:16:00,
2013-03-24 15:31:00,58.8,28.9,30.00,NNW,334,18.0,18.0,31,-99.99,,,0.00,CWS Microserver 1.4,2013-03-24 20:31:00,
2013-03-24 15:46:00,58.6,29.6,30.00,NW,311,17.6,28.9,33,-99.99,,,0.00,CWS Microserver 1.4,2013-03-24 20:46:00,
2013-03-24 15:56:00,58.1,28.0,30.00,NNW,329,23.9,38.1,31,-99.99,,,0.00,CWS Microserver 1.4,2013-03-24 20:56:00,
2013-03-24 16:06:00,57.7,27.1,30.00,NNW,342,13.8,27.3,30,-99.99,,,0.00,CWS Microserver 1.4,2013-03-24 21:06:00,
2013-03-24 16:11:00,58.8,26.0,30.00,NW,326,20.6,27.3,28,-99.99,,,0.00,CWS Microserver 1.4,2013-03-24 21:11:00,
2013-03-24 16:26:00,58.8,26.0,30.00,NNW,347,22.0,32.0,28,-99.99,,,0.00,CWS Microserver 1.4,2013-03-24 21:26:00,
2013-03-24 16:31:00,57.3,27.0,30.00,NNW,328,16.8,32.0,31,-99.99,,,0.00,CWS Microserver 1.4,2013-03-24 21:31:00,
2013-03-24 16:36:00,57.9,26.3,30.00,NNW,339,27.1,28.9,29,-99.99,,,0.00,CWS Microserver 1.4,2013-03-24 21:36:00,
2013-03-24 16:41:00,58.1,26.4,30.00,NNW,339,27.1,28.9,29,-99.99,,,0.00,CWS Microserver 1.4,2013-03-24 21:41:00,
2013-03-24 16:51:00,57.7,27.8,30.00,NNW,345,13.1,27.8,31,-99.99,,,0.00,CWS Microserver 1.4,2013-03-24 21:51:00,
2013-03-24 16:56:00,57.9,27.6,30.00,NNW,332,20.8,28.2,31,-99.99,,,0.00,CWS Microserver 1.4,2013-03-24 21:56:00,
2013-03-24 17:01:00,58.1,27.4,30.00,NW,315,20.5,28.2,30,-99.99,,,0.00,CWS Microserver 1.4,2013-03-24 22:01:00,
2013-03-24 17:11:00,58.8,27.5,30.00,NNW,340,14.7,31.2,30,-99.99,,,0.00,CWS Microserver 1.4,2013-03-24 22:11:00,
2013-03-24 17:16:00,58.4,27.2,30.00,NW,316,19.8,31.2,30,-99.99,,,0.00,CWS Microserver 1.4,2013-03-24 22:16:00,
2013-03-24 17:21:00,57.5,26.6,30.00,NW,316,19.8,31.2,30,-99.99,,,0.00,CWS Microserver 1.4,2013-03-24 22:21:00,
2013-03-24 17:26:00,57.5,28.0,30.00,NNW,327,13.5,30.0,32,-99.99,,,0.00,CWS Microserver 1.4,2013-03-24 22:26:00,
2013-03-24 17:31:00,57.5,28.0,30.00,NW,313,14.6,30.0,32,-99.99,,,0.00,CWS Microserver 1.4,2013-03-24 22:31:00,
2013-03-24 17:36:00,57.5,28.0,30.00,North,356,14.7,24.0,32,-99.99,,,0.00,CWS Microserver 1.4,2013-03-24 22:36:00,
2013-03-24 17:46:00,57.5,27.8,30.00,NNW,331,24.0,30.6,32,-99.99,,,0.00,CWS Microserver 1.4,2013-03-24 22:46:00,
2013-03-24 17:51:00,57.3,26.6,30.00,NW,322,16.4,30.6,30,-99.99,,,0.00,CWS Microserver 1.4,2013-03-24 22:51:00,
2013-03-24 17:56:00,57.7,27.2,30.00,NNW,327,19.2,25.3,31,-99.99,,,0.00,CWS Microserver 1.4,2013-03-24 22:56:00,
2013-03-24 18:16:00,57.7,27.5,30.00,NW,318,17.7,24.9,31,-99.99,,,0.00,CWS Microserver 1.4,2013-03-24 23:16:00,
2013-03-24 18:21:00,57.3,28.0,30.00,NW,326,19.8,24.9,32,-99.99,,,0.00,CWS Microserver 1.4,2013-03-24 23:21:00,
2013-03-24 18:36:00,57.3,26.9,30.01,NNW,333,6.5,21.4,31,-99.99,,,0.00,CWS Microserver 1.4,2013-03-24 23:36:00,
2013-03-24 18:41:00,57.2,26.4,30.01,NW,324,18.4,24.3,30,-99.99,,,0.00,CWS Microserver 1.4,2013-03-24 23:41:00,
2013-03-24 18:46:00,56.8,26.8,30.01,NNW,331,21.3,25.5,31,-99.99,,,0.00,CWS Microserver 1.4,2013-03-24 23:46:00,
2013-03-24 18:51:00,56.8,26.1,30.01,NNW,329,14.4,25.5,30,-99.99,,,0.00,CWS Microserver 1.4,2013-03-24 23:51:00,
2013-03-24 19:01:00,56.4,26.0,30.01,NNW,328,17.6,26.9,30,-99.99,,,0.00,CWS Microserver 1.4,2013-03-25 00:01:00,
2013-03-24 19:11:00,56.6,25.8,30.02,NW,321,17.7,24.9,30,-99.99,,,0.00,CWS Microserver 1.4,2013-03-25 00:11:00,
2013-03-24 19:16:00,56.6,25.9,30.02,NW,321,12.2,15.0,30,-99.99,,,0.00,CWS Microserver 1.4,2013-03-25 00:16:00,
2013-03-24 19:21:00,56.6,26.1,30.02,NW,323,15.1,19.8,30,-99.99,,,0.00,CWS Microserver 1.4,2013-03-25 00:21:00,
2013-03-24 19:31:00,56.1,26.2,30.02,NW,317,11.2,21.5,31,-99.99,,,0.00,CWS Microserver 1.4,2013-03-25 00:31:00,
2013-03-24 19:36:00,55.7,25.9,30.03,NNW,334,9.1,18.6,31,-99.99,,,0.00,CWS Microserver 1.4,2013-03-25 00:36:00,
2013-03-24 19:46:00,55.5,26.4,30.03,NW,321,4.8,13.9,32,-99.99,,,0.00,CWS Microserver 1.4,2013-03-25 00:46:00,
2013-03-24 19:51:00,55.4,26.5,30.03,North,3,6.9,15.7,32,-99.99,,,0.00,CWS Microserver 1.4,2013-03-25 00:51:00,
2013-03-24 19:56:00,55.4,26.5,30.03,NNW,344,12.1,16.9,32,-99.99,,,0.00,CWS Microserver 1.4,2013-03-25 00:56:00,
2013-03-24 20:01:00,55.4,26.5,30.03,NNW,345,5.9,16.9,32,-99.99,,,0.00,CWS Microserver 1.4,2013-03-25 01:01:00,
2013-03-24 20:06:00,55.4,26.5,30.03,NNW,328,7.2,16.5,32,-99.99,,,0.00,CWS Microserver 1.4,2013-03-25 01:06:00,
2013-03-24 20:11:00,55.0,26.4,30.05,NNW,345,8.8,13.8,33,-99.99,,,0.00,CWS Microserver 1.4,2013-03-25 01:11:00,
2013-03-24 20:16:00,54.8,26.4,30.05,NNW,343,5.1,13.2,33,-99.99,,,0.00,CWS Microserver 1.4,2013-03-25 01:16:00,
2013-03-24 20:21:00,54.8,26.6,30.05,NNW,343,5.1,13.2,33,-99.99,,,0.00,CWS Microserver 1.4,2013-03-25 01:21:00,
2013-03-24 20:31:00,54.5,25.9,30.06,NNW,348,16.1,17.2,33,-99.99,,,0.00,CWS Microserver 1.4,2013-03-25 01:31:00,
2013-03-24 20:36:00,54.5,25.8,30.06,NNW,336,12.8,19.3,32,-99.99,,,0.00,CWS Microserver 1.4,2013-03-25 01:36:00,
2013-03-24 20:41:00,54.5,25.8,30.06,North,359,10.4,19.3,32,-99.99,,,0.00,CWS Microserver 1.4,2013-03-25 01:41:00,
2013-03-24 20:46:00,54.3,25.7,30.07,North,350,7.0,19.3,32,-99.99,,,0.00,CWS Microserver 1.4,2013-03-25 01:46:00,
2013-03-24 20:51:00,54.1,25.7,30.07,NNW,331,8.5,16.2,33,-99.99,,,0.00,CWS Microserver 1.4,2013-03-25 01:51:00,
2013-03-24 20:56:00,53.9,25.8,30.07,NNW,331,8.5,16.2,33,-99.99,,,0.00,CWS Microserver 1.4,2013-03-25 01:56:00,
2013-03-24 21:01:00,53.7,25.8,30.07,NNW,331,8.5,16.2,33,-99.99,,,0.00,CWS Microserver 1.4,2013-03-25 02:01:00,
2013-03-24 21:11:00,53.7,26.1,30.08,NNW,334,11.9,12.1,34,-99.99,,,0.00,CWS Microserver 1.4,2013-03-25 02:11:00,
2013-03-24 21:16:00,53.7,26.1,30.08,NNW,347,8.6,12.1,34,-99.99,,,0.00,CWS Microserver 1.4,2013-03-25 02:16:00,
2013-03-24 21:21:00,53.7,26.1,30.08,NNW,346,7.7,12.1,34,-99.99,,,0.00,CWS Microserver 1.4,2013-03-25 02:21:00,
2013-03-24 21:26:00,53.2,25.9,30.08,NNW,348,4.9,12.1,34,-99.99,,,0.00,CWS Microserver 1.4,2013-03-25 02:26:00,
2013-03-24 21:31:00,53.0,26.0,30.08,NNW,346,7.4,10.0,34,-99.99,,,0.00,CWS Microserver 1.4,2013-03-25 02:31:00,
2013-03-24 21:41:00,52.8,26.1,30.08,North,0,3.5,9.0,35,-99.99,,,0.00,CWS Microserver 1.4,2013-03-25 02:41:00,
2013-03-24 21:46:00,52.8,26.6,30.08,North,356,4.4,8.1,36,-99.99,,,0.00,CWS Microserver 1.4,2013-03-25 02:46:00,
2013-03-24 21:51:00,52.8,26.6,30.08,North,351,5.2,8.0,36,-99.99,,,0.00,CWS Microserver 1.4,2013-03-25 02:51:00,
2013-03-24 21:56:00,52.8,26.6,30.08,NNW,345,4.0,8.0,36,-99.99,,,0.00,CWS Microserver 1.4,2013-03-25 02:56:00,
2013-03-24 22:11:00,51.9,26.9,30.10,NNW,341,5.8,8.5,37,-99.99,,,0.00,CWS Microserver 1.4,2013-03-25 03:11:00,
2013-03-24 22:16:00,51.8,26.7,30.10,NNW,341,5.8,8.5,37,-99.99,,,0.00,CWS Microserver 1.4,2013-03-25 03:16:00,
2013-03-24 22:26:00,51.8,26.8,30.10,NNW,328,5.8,13.9,37,-99.99,,,0.00,CWS Microserver 1.4,2013-03-25 03:26:00,
2013-03-24 22:31:00,51.8,26.8,30.10,NNW,339,12.0,14.0,37,-99.99,,,0.00,CWS Microserver 1.4,2013-03-25 03:31:00,
2013-03-24 22:36:00,51.8,26.8,30.10,NNW,344,13.9,14.0,37,-99.99,,,0.00,CWS Microserver 1.4,2013-03-25 03:36:00,
2013-03-24 22:41:00,51.6,27.0,30.11,NNW,339,11.9,14.0,38,-99.99,,,0.00,CWS Microserver 1.4,2013-03-25 03:41:00,
2013-03-24 22:51:00,51.2,26.9,30.12,NNW,343,8.5,13.2,38,-99.99,,,0.00,CWS Microserver 1.4,2013-03-25 03:51:00,
2013-03-24 22:56:00,51.2,27.0,30.12,NNW,346,6.1,8.5,38,-99.99,,,0.00,CWS Microserver 1.4,2013-03-25 03:56:00,
2013-03-24 23:01:00,51.0,26.9,30.12,North,349,10.2,14.5,39,-99.99,,,0.00,CWS Microserver 1.4,2013-03-25 04:01:00,
2013-03-24 23:16:00,51.0,26.9,30.12,NNW,335,13.6,17.1,39,-99.99,,,0.00,CWS Microserver 1.4,2013-03-25 04:16:00,
2013-03-24 23:21:00,50.9,27.1,30.15,North,352,12.3,18.2,39,-99.99,,,0.00,CWS Microserver 1.4,2013-03-25 04:21:00,
2013-03-24 23:26:00,50.9,27.2,30.15,NNW,339,10.5,18.2,39,-99.99,,,0.00,CWS Microserver 1.4,2013-03-25 04:26:00,
2013-03-24 23:36:00,50.5,27.1,30.15,NNW,340,11.9,13.7,40,-99.99,,,0.00,CWS Microserver 1.4,2013-03-25 04:36:00,
2013-03-24 23:46:00,50.5,27.1,30.15,NNW,346,9.7,15.6,40,-99.99,,,0.00,CWS Microserver 1.4,2013-03-25 04:46:00,
2013-03-24 23:51:00,50.3,27.2,30.15,NNW,339,8.8,14.9,40,-99.99,,,0.00,CWS Microserver 1.4,2013-03-25 04:51:00,
2013-03-24 23:56:00,50.1,27.0,30.15,NNW,344,10.2,16.1,40,-99.99,,,0.00,CWS Microserver 1.4,2013-03-25 04:56:00,